Terminal Aerodrome Forecast
Issued by NWS

Home | Current Version | Previous Version | Text Only | Print | Product List | Glossary On
Versions: 1 2 3 4 5 6 7 8 9 10 11 12 13 14 15 16 17 18
000
FTUS46 KSGX 060520
TAFCRQ
TAF
KCRQ 060520Z 0606/0706 VRB05KT P6SM -SHRA SCT025 OVC035
     FM060900 VRB04KT P6SM -SHRA SCT015 BKN025 OVC035
     FM061800 20010KT P6SM -SHRA BKN015 OVC025
     FM062100 23010G18KT P6SM -SHRA SCT015 BKN025
     FM070200 25006KT P6SM VCSH SCT015 BKN025=

USA.gov is the U.S. government's official web portal to all federal, state and local government web resources and services.